createdAt,value
2017-08-05T00:00:08.314Z,76.00
2017-08-05T00:02:36.656Z,76.00
2017-08-05T00:05:04.891Z,75.80
2017-08-05T00:07:33.175Z,76.00
2017-08-05T00:10:01.434Z,76.20
2017-08-05T00:12:29.674Z,76.10
2017-08-05T00:14:57.960Z,76.40
2017-08-05T00:17:26.966Z,76.40
2017-08-05T00:19:55.988Z,75.80
2017-08-05T00:22:24.555Z,75.80
2017-08-05T00:24:52.845Z,75.90
2017-08-05T00:27:21.111Z,76.40
2017-08-05T00:29:49.356Z,76.90
2017-08-05T00:32:18.411Z,78.30
2017-08-05T00:34:46.705Z,77.60
2017-08-05T00:37:14.956Z,77.60
2017-08-05T00:39:43.750Z,77.40
2017-08-05T00:42:12.040Z,77.80
2017-08-05T00:44:40.269Z,77.90
2017-08-05T00:47:09.281Z,77.70
2017-08-05T00:49:37.587Z,77.60
2017-08-05T00:52:05.818Z,77.30
2017-08-05T00:54:34.826Z,77.80
2017-08-05T00:57:03.081Z,77.80
2017-08-05T00:59:32.095Z,77.70
2017-08-05T01:02:01.085Z,77.20
2017-08-05T01:04:29.356Z,77.10
2017-08-05T01:06:57.632Z,77.60
2017-08-05T01:09:26.639Z,78.10
2017-08-05T01:11:55.503Z,78.10
2017-08-05T01:14:23.753Z,78.20
2017-08-05T01:16:52.017Z,78.00
2017-08-05T01:19:20.275Z,78.00
2017-08-05T01:21:48.575Z,78.20
2017-08-05T01:24:16.836Z,78.80
2017-08-05T01:26:45.097Z,78.50
2017-08-05T01:29:13.333Z,78.30
2017-08-05T01:31:41.591Z,78.70
2017-08-05T01:34:09.848Z,78.80
2017-08-05T01:36:38.117Z,79.00
2017-08-05T01:39:06.383Z,79.00
2017-08-05T01:41:34.651Z,79.20
2017-08-05T01:44:03.670Z,79.30
2017-08-05T01:46:31.947Z,79.30
2017-08-05T01:49:00.194Z,79.30
2017-08-05T01:51:28.449Z,79.10
2017-08-05T01:53:57.484Z,80.10
2017-08-05T01:56:25.716Z,79.50
2017-08-05T01:58:53.943Z,79.50
2017-08-05T02:01:22.194Z,79.30
2017-08-05T02:03:50.434Z,79.20
2017-08-05T02:06:18.720Z,79.30
2017-08-05T02:08:46.975Z,79.30
2017-08-05T02:11:15.215Z,79.20
2017-08-05T02:13:43.483Z,79.20
2017-08-05T02:16:11.734Z,79.60
2017-08-05T02:18:40.771Z,80.00
2017-08-05T02:21:08.998Z,79.30
2017-08-05T02:23:37.248Z,79.10
2017-08-05T02:26:05.505Z,78.90
2017-08-05T02:28:33.709Z,78.80
2017-08-05T02:31:01.966Z,78.20
2017-08-05T02:33:30.217Z,78.30
2017-08-05T02:35:58.467Z,77.70
2017-08-05T02:38:26.840Z,77.50
2017-08-05T02:40:55.078Z,77.90
2017-08-05T02:43:23.334Z,78.00
2017-08-05T02:45:51.556Z,78.50
2017-08-05T02:48:19.835Z,77.90
2017-08-05T02:50:48.891Z,78.10
2017-08-05T02:53:17.124Z,78.00
2017-08-05T02:55:45.374Z,78.40
2017-08-05T02:58:13.612Z,78.50
2017-08-05T03:00:41.858Z,78.70
2017-08-05T03:03:10.122Z,80.90
2017-08-05T03:05:39.173Z,79.50
2017-08-05T03:08:07.384Z,79.50
2017-08-05T03:10:35.635Z,79.70
2017-08-05T03:13:03.893Z,80.60
2017-08-05T03:15:32.149Z,81.80
2017-08-05T03:18:01.151Z,80.30
2017-08-05T03:20:29.467Z,80.20
2017-08-05T03:22:57.720Z,80.80
2017-08-05T03:25:25.968Z,81.70
2017-08-05T03:27:54.978Z,82.60
2017-08-05T03:30:23.243Z,82.60
2017-08-05T03:32:51.486Z,83.00
2017-08-05T03:35:19.723Z,83.30
2017-08-05T03:37:47.983Z,83.20
2017-08-05T03:40:16.254Z,83.60
2017-08-05T03:42:44.524Z,83.50
2017-08-05T03:45:13.542Z,82.60
2017-08-05T03:47:41.791Z,82.40
2017-08-05T03:50:10.809Z,83.20
2017-08-05T03:52:39.057Z,83.20
2017-08-05T03:55:08.096Z,83.50
2017-08-05T03:57:36.379Z,83.40
2017-08-05T04:00:05.341Z,83.60
2017-08-05T04:02:33.606Z,83.50
2017-08-05T04:05:01.836Z,83.10
2017-08-05T04:07:30.294Z,83.80
2017-08-05T04:09:58.529Z,84.30
2017-08-05T04:12:26.835Z,83.30
2017-08-05T04:14:55.812Z,83.10
2017-08-05T04:17:24.830Z,82.60
2017-08-05T04:19:53.047Z,82.60
2017-08-05T04:22:21.282Z,83.40
2017-08-05T04:24:49.542Z,83.40
2017-08-05T04:27:18.578Z,83.90
2017-08-05T04:29:46.823Z,83.20
2017-08-05T04:32:15.845Z,83.90
2017-08-05T04:34:44.085Z,83.90
2017-08-05T04:37:13.100Z,84.30
2017-08-05T04:39:41.354Z,84.30
2017-08-05T04:42:09.600Z,84.10
2017-08-05T04:44:37.847Z,83.90
2017-08-05T04:47:06.107Z,84.10
2017-08-05T04:49:34.362Z,84.30
2017-08-05T04:52:03.398Z,83.70
2017-08-05T04:54:31.669Z,83.70
2017-08-05T04:56:59.893Z,82.70
2017-08-05T04:59:28.154Z,83.70
2017-08-05T05:01:56.402Z,84.00
2017-08-05T05:04:24.662Z,84.30
2017-08-05T05:06:52.920Z,84.80
2017-08-05T05:09:21.893Z,83.20
2017-08-05T05:11:50.927Z,83.00
2017-08-05T05:14:19.178Z,83.00
2017-08-05T05:16:47.497Z,82.90
2017-08-05T05:19:15.755Z,83.70
2017-08-05T05:21:43.977Z,82.90
2017-08-05T05:24:12.327Z,82.60
2017-08-05T05:26:40.616Z,82.90
2017-08-05T05:29:08.918Z,83.50
2017-08-05T05:31:37.129Z,83.10
2017-08-05T05:34:06.139Z,83.60
2017-08-05T05:36:34.416Z,83.50
2017-08-05T05:39:02.645Z,83.90
2017-08-05T05:41:30.899Z,84.50
2017-08-05T05:43:59.121Z,84.50
2017-08-05T05:46:28.193Z,86.30
2017-08-05T05:48:56.431Z,86.30
2017-08-05T05:51:24.706Z,86.20
2017-08-05T05:53:52.974Z,84.80
2017-08-05T05:56:21.243Z,85.40
2017-08-05T05:58:50.251Z,85.30
2017-08-05T06:01:18.508Z,85.20
2017-08-05T06:03:47.552Z,84.80
2017-08-05T06:06:15.787Z,84.80
2017-08-05T06:08:44.044Z,83.70
2017-08-05T06:11:12.277Z,83.70
2017-08-05T06:13:40.580Z,83.60
2017-08-05T06:16:08.786Z,84.00
2017-08-05T06:18:37.042Z,83.70
2017-08-05T06:21:05.281Z,83.60
2017-08-05T06:23:33.567Z,83.60
2017-08-05T06:26:01.810Z,83.20
2017-08-05T06:28:30.063Z,84.10
2017-08-05T06:30:59.094Z,83.50
2017-08-05T06:33:27.342Z,83.50
2017-08-05T06:35:56.365Z,84.90
2017-08-05T06:38:24.624Z,84.90
2017-08-05T06:40:52.859Z,86.10
2017-08-05T06:43:21.098Z,85.90
2017-08-05T06:45:49.341Z,86.10
2017-08-05T06:48:18.381Z,87.10
2017-08-05T06:50:46.602Z,87.10
2017-08-05T06:53:15.611Z,87.30
2017-08-05T06:55:43.893Z,87.20
2017-08-05T06:58:12.882Z,87.00
2017-08-05T07:00:41.922Z,87.00
2017-08-05T07:03:10.172Z,87.00
2017-08-05T07:05:38.470Z,86.90
2017-08-05T07:08:06.695Z,86.60
2017-08-05T07:10:35.702Z,87.20
2017-08-05T07:13:03.971Z,87.20
2017-08-05T07:15:32.995Z,87.40
2017-08-05T07:18:01.257Z,87.40
2017-08-05T07:20:30.266Z,86.70
2017-08-05T07:22:58.518Z,86.50
2017-08-05T07:25:26.789Z,86.00
2017-08-05T07:27:55.838Z,85.60
2017-08-05T07:30:24.086Z,85.60
2017-08-05T07:32:52.337Z,85.30
2017-08-05T07:35:20.581Z,85.20
2017-08-05T07:37:48.814Z,85.50
2017-08-05T07:40:17.094Z,85.00
2017-08-05T07:42:45.334Z,85.60
2017-08-05T07:45:14.361Z,86.80
2017-08-05T07:47:42.602Z,86.20
2017-08-05T07:50:10.893Z,86.20
2017-08-05T07:52:39.231Z,86.40
2017-08-05T07:55:07.506Z,86.00
2017-08-05T07:57:35.721Z,86.70
2017-08-05T08:00:03.980Z,86.20
2017-08-05T08:02:32.271Z,85.70
2017-08-05T08:05:00.606Z,85.70
2017-08-05T08:07:28.842Z,86.00
2017-08-05T08:09:57.865Z,86.10
2017-08-05T08:12:26.155Z,86.10
2017-08-05T08:14:54.383Z,84.90
2017-08-05T08:17:23.397Z,87.60
2017-08-05T08:19:51.676Z,87.60
2017-08-05T08:22:19.924Z,87.70
2017-08-05T08:24:49.062Z,87.60
2017-08-05T08:27:17.291Z,87.60
2017-08-05T08:29:46.341Z,87.60
2017-08-05T08:32:14.562Z,87.60
2017-08-05T08:34:43.624Z,86.70
2017-08-05T08:37:11.878Z,86.70
2017-08-05T08:39:40.109Z,86.70
2017-08-05T08:42:09.157Z,87.10
2017-08-05T08:44:37.389Z,87.10
2017-08-05T08:47:06.392Z,86.80
2017-08-05T08:49:34.668Z,86.80
2017-08-05T08:52:03.693Z,86.70
2017-08-05T08:54:32.077Z,86.70
2017-08-05T08:57:01.052Z,86.90
2017-08-05T08:59:29.313Z,86.90
2017-08-05T09:01:58.343Z,87.10
2017-08-05T09:04:26.566Z,87.00
2017-08-05T09:06:54.850Z,86.50
2017-08-05T09:09:23.525Z,86.00
2017-08-05T09:11:51.769Z,86.70
2017-08-05T09:14:20.022Z,86.30
2017-08-05T09:16:48.297Z,86.90
2017-08-05T09:19:16.554Z,86.00
2017-08-05T09:21:45.555Z,85.50
2017-08-05T09:24:14.578Z,86.50
2017-08-05T09:26:42.814Z,86.50
2017-08-05T09:29:11.834Z,85.40
2017-08-05T09:31:40.127Z,85.30
2017-08-05T09:34:08.383Z,86.20
2017-08-05T09:36:36.629Z,84.80
2017-08-05T09:39:04.865Z,85.10
2017-08-05T09:41:33.124Z,85.90
2017-08-05T09:44:01.378Z,85.70
2017-08-05T09:46:30.426Z,85.00
2017-08-05T09:48:58.716Z,84.90
2017-08-05T09:51:26.944Z,85.30
2017-08-05T09:53:55.211Z,85.00
2017-08-05T09:56:23.495Z,85.40
2017-08-05T09:58:51.740Z,86.00
2017-08-05T10:01:19.979Z,85.70
2017-08-05T10:03:48.255Z,86.10
2017-08-05T10:06:16.528Z,84.60
2017-08-05T10:08:44.755Z,85.70
2017-08-05T10:11:13.795Z,84.80
2017-08-05T10:13:42.171Z,84.70
2017-08-05T10:16:10.391Z,84.60
2017-08-05T10:18:38.702Z,85.10
2017-08-05T10:21:06.976Z,86.00
2017-08-05T10:23:36.103Z,86.10
2017-08-05T10:26:04.357Z,86.10
2017-08-05T10:28:33.396Z,86.10
2017-08-05T10:31:01.632Z,86.10
2017-08-05T10:33:29.899Z,85.70
2017-08-05T10:35:58.204Z,86.10
2017-08-05T10:38:26.460Z,85.30
2017-08-05T10:40:55.475Z,86.00
2017-08-05T10:43:23.740Z,86.00
2017-08-05T10:45:52.231Z,86.10
2017-08-05T10:48:20.621Z,86.00
2017-08-05T10:50:48.880Z,85.20
2017-08-05T10:53:17.138Z,85.60
2017-08-05T10:55:46.166Z,85.70
2017-08-05T10:58:14.428Z,85.60
2017-08-05T11:00:42.699Z,85.80
2017-08-05T11:03:10.983Z,85.60
2017-08-05T11:05:39.224Z,86.00
2017-08-05T11:08:08.238Z,85.20
2017-08-05T11:10:38.221Z,85.50
2017-08-05T11:13:06.510Z,85.50
2017-08-05T11:15:34.777Z,85.10
2017-08-05T11:18:03.029Z,84.70
2017-08-05T11:20:31.294Z,85.30
2017-08-05T11:22:59.539Z,84.80
2017-08-05T11:25:27.826Z,85.60
2017-08-05T11:27:56.081Z,85.70
2017-08-05T11:30:25.126Z,84.70
2017-08-05T11:32:53.426Z,84.60
2017-08-05T11:35:21.670Z,82.70
2017-08-05T11:37:49.921Z,82.40
2017-08-05T11:40:18.942Z,82.10
2017-08-05T11:42:47.196Z,82.10
2017-08-05T11:45:15.462Z,82.60
2017-08-05T11:47:44.458Z,81.50
2017-08-05T11:50:13.485Z,81.90
2017-08-05T11:52:41.735Z,81.90
2017-08-05T11:55:09.983Z,81.80
2017-08-05T11:57:38.242Z,82.60
2017-08-05T12:00:06.500Z,83.20
2017-08-05T12:02:34.824Z,83.00
2017-08-05T12:05:03.090Z,82.20
2017-08-05T12:07:31.342Z,82.10
2017-08-05T12:09:59.657Z,82.10
2017-08-05T12:12:27.891Z,83.00
2017-08-05T12:14:56.231Z,83.60
2017-08-05T12:17:24.470Z,80.50
2017-08-05T12:19:52.704Z,83.40
2017-08-05T12:22:20.964Z,83.70
2017-08-05T12:24:49.250Z,80.00
2017-08-05T12:27:18.275Z,79.40
2017-08-05T12:29:46.526Z,79.40
2017-08-05T12:32:14.758Z,79.20
2017-08-05T12:34:43.015Z,76.50
2017-08-05T12:37:11.265Z,76.00
2017-08-05T12:39:39.514Z,77.30
2017-08-05T12:42:07.739Z,76.40
2017-08-05T12:44:36.042Z,75.90
2017-08-05T12:47:04.315Z,77.20
2017-08-05T12:49:32.556Z,78.20
2017-08-05T12:52:00.837Z,79.00
2017-08-05T12:54:29.065Z,77.50
2017-08-05T12:56:57.306Z,78.80
2017-08-05T12:59:25.552Z,79.00
2017-08-05T13:01:53.828Z,77.80
2017-08-05T13:04:22.086Z,78.50
2017-08-05T13:06:50.346Z,77.90
2017-08-05T13:09:18.605Z,76.40
2017-08-05T13:11:46.899Z,76.00
2017-08-05T13:14:15.154Z,74.90
2017-08-05T13:16:43.399Z,74.70
2017-08-05T13:19:11.775Z,74.50
2017-08-05T13:21:40.751Z,72.50
2017-08-05T13:24:09.018Z,72.40
2017-08-05T13:26:37.310Z,72.80
2017-08-05T13:29:06.318Z,72.90
2017-08-05T13:31:34.564Z,72.90
2017-08-05T13:34:03.646Z,69.90
2017-08-05T13:36:31.901Z,69.90
2017-08-05T13:39:00.165Z,70.00
2017-08-05T13:41:28.425Z,71.60
2017-08-05T13:43:56.685Z,72.20
2017-08-05T13:46:24.942Z,74.00
2017-08-05T13:48:53.957Z,73.50
2017-08-05T13:51:22.335Z,73.50
2017-08-05T13:53:50.558Z,74.30
2017-08-05T13:56:18.805Z,75.50
2017-08-05T13:58:47.075Z,76.30
2017-08-05T14:01:15.344Z,77.70
2017-08-05T14:03:43.619Z,76.80
2017-08-05T14:06:12.642Z,79.00
2017-08-05T14:08:41.229Z,80.20
2017-08-05T14:11:10.112Z,80.90
2017-08-05T14:13:38.355Z,81.30
2017-08-05T14:16:06.647Z,80.00
2017-08-05T14:18:34.892Z,81.10
2017-08-05T14:21:03.949Z,78.70
2017-08-05T14:23:32.210Z,78.50
2017-08-05T14:26:00.476Z,79.80
2017-08-05T14:28:28.751Z,77.00
2017-08-05T14:30:56.983Z,77.30
2017-08-05T14:33:25.241Z,79.10
2017-08-05T14:35:54.435Z,77.50
2017-08-05T14:38:22.698Z,76.90
2017-08-05T14:40:50.918Z,76.50
2017-08-05T14:43:19.967Z,77.70
2017-08-05T14:45:48.243Z,77.70
2017-08-05T14:48:16.495Z,77.00
2017-08-05T14:50:44.765Z,77.90
2017-08-05T14:53:13.055Z,78.10
2017-08-05T14:55:42.164Z,78.50
2017-08-05T14:58:10.458Z,76.70
2017-08-05T15:00:38.671Z,76.80
2017-08-05T15:03:07.766Z,75.50
2017-08-05T15:05:36.767Z,74.40
2017-08-05T15:08:05.126Z,74.00
2017-08-05T15:10:33.394Z,76.00
2017-08-05T15:13:02.441Z,73.70
2017-08-05T15:15:31.454Z,73.40
2017-08-05T15:17:59.730Z,73.30
2017-08-05T15:20:28.410Z,72.50
2017-08-05T15:22:56.669Z,72.90
2017-08-05T15:25:24.967Z,73.20
2017-08-05T15:27:53.232Z,74.20
2017-08-05T15:30:21.492Z,73.40
2017-08-05T15:32:50.544Z,72.70
2017-08-05T15:35:18.807Z,72.70
2017-08-05T15:37:47.085Z,72.00
2017-08-05T15:40:15.320Z,70.10
2017-08-05T15:42:43.577Z,70.10
2017-08-05T15:45:12.630Z,67.60
2017-08-05T15:47:40.879Z,67.50
2017-08-05T15:50:09.144Z,67.20
2017-08-05T15:52:38.182Z,66.70
2017-08-05T15:55:06.458Z,66.70
2017-08-05T15:57:34.685Z,67.10
2017-08-05T16:00:03.755Z,67.40
2017-08-05T16:02:32.345Z,67.40
2017-08-05T16:05:00.617Z,67.50
2017-08-05T16:07:28.847Z,68.00
2017-08-05T16:09:57.106Z,67.50
2017-08-05T16:12:25.423Z,67.90
2017-08-05T16:14:53.661Z,68.60
2017-08-05T16:17:21.928Z,69.00
2017-08-05T16:19:50.965Z,69.00
2017-08-05T16:22:19.197Z,68.80
2017-08-05T16:24:47.464Z,69.10
2017-08-05T16:27:15.730Z,70.80
2017-08-05T16:29:43.989Z,68.70
2017-08-05T16:32:12.251Z,68.50
2017-08-05T16:34:40.630Z,70.70
2017-08-05T16:37:08.939Z,70.90
2017-08-05T16:39:37.184Z,71.40
2017-08-05T16:42:05.784Z,70.50
2017-08-05T16:44:34.052Z,70.70
2017-08-05T16:47:02.311Z,71.70
2017-08-05T16:49:30.563Z,72.10
2017-08-05T16:51:59.573Z,73.70
2017-08-05T16:54:27.820Z,73.60
2017-08-05T16:56:56.849Z,76.80
2017-08-05T16:59:25.102Z,76.80
2017-08-05T17:01:54.113Z,79.80
2017-08-05T17:04:22.380Z,79.80
2017-08-05T17:06:51.414Z,80.30
2017-08-05T17:09:19.666Z,80.30
2017-08-05T17:11:47.945Z,81.00
2017-08-05T17:14:16.965Z,81.50
2017-08-05T17:16:45.195Z,81.50
2017-08-05T17:19:13.475Z,82.60
2017-08-05T17:21:41.761Z,82.90
2017-08-05T17:24:10.014Z,82.80
2017-08-05T17:26:39.035Z,82.30
2017-08-05T17:29:07.304Z,82.80
2017-08-05T17:31:35.552Z,81.90
2017-08-05T17:34:04.704Z,81.50
2017-08-05T17:36:32.935Z,80.90
2017-08-05T17:39:01.958Z,81.30
2017-08-05T17:41:30.244Z,80.70
2017-08-05T17:43:58.540Z,78.90
2017-08-05T17:46:26.812Z,79.50
2017-08-05T17:48:55.096Z,80.50
2017-08-05T17:51:23.367Z,81.60
2017-08-05T17:53:51.605Z,80.90
2017-08-05T17:56:20.640Z,82.40
2017-08-05T17:58:48.925Z,82.40
2017-08-05T18:01:17.216Z,81.60
2017-08-05T18:03:46.271Z,79.10
2017-08-05T18:06:15.255Z,78.60
2017-08-05T18:08:43.519Z,78.60
2017-08-05T18:11:12.547Z,78.80
2017-08-05T18:13:40.803Z,78.80
2017-08-05T18:16:09.066Z,80.00
2017-08-05T18:18:38.094Z,80.80
2017-08-05T18:21:06.365Z,80.60
2017-08-05T18:23:35.373Z,81.80
2017-08-05T18:26:03.664Z,81.70
2017-08-05T18:28:32.019Z,81.20
2017-08-05T18:31:00.278Z,81.00
2017-08-05T18:33:29.357Z,79.40
2017-08-05T18:35:57.620Z,79.40
2017-08-05T18:38:25.881Z,78.50
2017-08-05T18:40:54.192Z,77.80
2017-08-05T18:43:22.458Z,76.40
2017-08-05T18:45:50.698Z,77.80
2017-08-05T18:48:18.979Z,77.60
2017-08-05T18:50:47.252Z,78.80
2017-08-05T18:53:15.552Z,77.40
2017-08-05T18:55:43.817Z,78.60
2017-08-05T18:58:12.187Z,77.50
2017-08-05T19:00:40.407Z,77.40
2017-08-05T19:03:09.444Z,78.00
2017-08-05T19:05:37.764Z,77.80
2017-08-05T19:08:06.005Z,78.90
2017-08-05T19:10:34.316Z,79.50
2017-08-05T19:13:02.583Z,80.40
2017-08-05T19:15:30.864Z,81.00
2017-08-05T19:17:59.128Z,81.90
2017-08-05T19:20:27.410Z,82.10
2017-08-05T19:22:55.714Z,82.70
2017-08-05T19:25:23.986Z,83.10
2017-08-05T19:27:52.239Z,83.70
2017-08-05T19:30:20.521Z,84.50
2017-08-05T19:32:48.797Z,84.50
2017-08-05T19:35:17.088Z,84.80
2017-08-05T19:37:45.433Z,84.90
2017-08-05T19:40:13.728Z,84.60
2017-08-05T19:42:43.021Z,85.30
2017-08-05T19:45:11.329Z,84.60
2017-08-05T19:47:39.583Z,85.00
2017-08-05T19:50:07.882Z,84.50
2017-08-05T19:52:36.173Z,85.60
2017-08-05T19:55:04.454Z,85.50
2017-08-05T19:57:32.790Z,85.40
2017-08-05T20:00:01.073Z,85.40
2017-08-05T20:02:29.706Z,85.80
2017-08-05T20:04:58.896Z,86.00
2017-08-05T20:07:27.255Z,86.00
2017-08-05T20:09:55.517Z,86.40
2017-08-05T20:12:23.795Z,86.50
2017-08-05T20:14:52.088Z,86.00
2017-08-05T20:17:20.321Z,86.80
2017-08-05T20:19:48.625Z,85.80
2017-08-05T20:22:16.907Z,85.70
2017-08-05T20:24:45.168Z,85.90
2017-08-05T20:27:13.813Z,86.40
2017-08-05T20:29:42.066Z,86.50
2017-08-05T20:32:10.366Z,85.60
2017-08-05T20:34:39.413Z,85.40
2017-08-05T20:37:07.744Z,85.40
2017-08-05T20:39:36.801Z,85.10
2017-08-05T20:42:05.068Z,85.10
2017-08-05T20:44:33.354Z,84.40
2017-08-05T20:47:01.637Z,83.60
2017-08-05T20:49:29.958Z,83.80
2017-08-05T20:51:58.208Z,84.00
2017-08-05T20:54:26.563Z,84.40
2017-08-05T20:56:54.916Z,84.50
2017-08-05T20:59:23.162Z,84.90
2017-08-05T21:01:52.239Z,84.90
2017-08-05T21:04:20.483Z,84.90
2017-08-05T21:06:48.795Z,84.90
2017-08-05T21:09:17.088Z,84.50
2017-08-05T21:11:45.358Z,84.70
2017-08-05T21:14:14.390Z,85.10
2017-08-05T21:16:42.682Z,85.10
2017-08-05T21:19:10.958Z,85.00
2017-08-05T21:21:39.276Z,85.30
2017-08-05T21:24:07.535Z,85.20
2017-08-05T21:26:35.875Z,85.10
2017-08-05T21:29:04.181Z,85.10
2017-08-05T21:31:32.429Z,85.30
2017-08-05T21:34:00.670Z,84.90
2017-08-05T21:36:29.733Z,85.20
2017-08-05T21:38:58.034Z,85.20
2017-08-05T21:41:26.271Z,84.90
2017-08-05T21:43:54.642Z,84.80
2017-08-05T21:46:22.884Z,85.00
2017-08-05T21:48:51.930Z,85.30
2017-08-05T21:51:20.207Z,85.30
2017-08-05T21:53:48.486Z,85.60
2017-08-05T21:56:16.781Z,85.70
2017-08-05T21:58:45.025Z,85.60
2017-08-05T22:01:13.360Z,85.50
2017-08-05T22:03:41.646Z,86.20
2017-08-05T22:06:10.897Z,85.80
2017-08-05T22:08:39.204Z,85.20
2017-08-05T22:11:07.455Z,85.00
2017-08-05T22:13:35.726Z,84.50
2017-08-05T22:16:03.994Z,84.40
2017-08-05T22:18:32.313Z,84.80
2017-08-05T22:21:00.594Z,85.10
2017-08-05T22:23:28.930Z,85.20
2017-08-05T22:25:57.244Z,85.30
2017-08-05T22:28:25.817Z,85.70
2017-08-05T22:30:54.078Z,85.40
2017-08-05T22:33:22.384Z,84.90
2017-08-05T22:35:50.691Z,85.30
2017-08-05T22:38:18.956Z,85.30
2017-08-05T22:40:47.193Z,84.60
2017-08-05T22:43:15.676Z,84.50
2017-08-05T22:45:43.958Z,84.30
2017-08-05T22:48:12.244Z,85.00
2017-08-05T22:50:40.534Z,84.90
2017-08-05T22:53:08.800Z,84.80
2017-08-05T22:55:37.093Z,84.70
2017-08-05T22:58:05.378Z,84.80
2017-08-05T23:00:34.400Z,84.00
2017-08-05T23:03:02.822Z,84.00
2017-08-05T23:05:31.096Z,84.20
2017-08-05T23:07:59.409Z,84.20
2017-08-05T23:10:28.440Z,84.00
2017-08-05T23:12:56.699Z,84.00
2017-08-05T23:15:24.982Z,83.70
2017-08-05T23:17:53.254Z,83.80
2017-08-05T23:20:21.503Z,83.80
2017-08-05T23:22:50.557Z,83.40
2017-08-05T23:25:18.787Z,83.30
2017-08-05T23:27:47.827Z,83.60
2017-08-05T23:30:16.080Z,84.20
2017-08-05T23:32:44.371Z,83.80
2017-08-05T23:35:12.656Z,84.10
2017-08-05T23:37:40.928Z,84.00
2017-08-05T23:40:09.446Z,83.70
2017-08-05T23:42:37.725Z,84.40
2017-08-05T23:45:05.969Z,84.60
2017-08-05T23:47:34.267Z,84.60
2017-08-05T23:50:03.297Z,86.00
2017-08-05T23:52:32.342Z,85.00
2017-08-05T23:55:00.621Z,84.90
2017-08-05T23:57:28.891Z,85.00
2017-08-05T23:59:57.134Z,84.90
